createdAt,value
2022-12-20T00:01:28.505Z,12.07
2022-12-20T00:03:56.694Z,11.43
2022-12-20T00:06:24.388Z,11.07
2022-12-20T00:08:55.882Z,10.30
2022-12-20T00:11:22.838Z,12.23
2022-12-20T00:13:49.420Z,10.37
2022-12-20T00:16:18.502Z,9.30
2022-12-20T00:18:45.371Z,11.30
2022-12-20T00:21:13.768Z,11.30
2022-12-20T00:23:41.621Z,11.80
2022-12-20T00:26:12.274Z,10.30
2022-12-20T00:28:39.882Z,10.23
2022-12-20T00:31:08.047Z,12.70
2022-12-20T00:33:36.072Z,12.80
2022-12-20T00:36:03.369Z,11.40
2022-12-20T00:38:30.076Z,11.47
2022-12-20T00:41:10.730Z,11.90
2022-12-20T00:43:38.522Z,12.47
2022-12-20T00:46:06.021Z,14.70
2022-12-20T00:48:33.076Z,11.07
2022-12-20T00:51:01.549Z,12.10
2022-12-20T00:53:28.721Z,9.83
2022-12-20T00:55:55.365Z,16.23
2022-12-20T00:58:22.218Z,13.23
2022-12-20T01:00:55.565Z,10.97
2022-12-20T01:03:23.471Z,11.77
2022-12-20T01:06:01.484Z,12.40
2022-12-20T01:08:30.850Z,10.67
2022-12-20T01:11:06.543Z,9.10
2022-12-20T01:13:35.138Z,12.60
2022-12-20T01:16:07.533Z,10.90
2022-12-20T01:18:34.287Z,12.77
2022-12-20T01:21:05.328Z,12.50
2022-12-20T01:23:32.335Z,9.67
2022-12-20T01:26:00.730Z,9.47
2022-12-20T01:28:28.620Z,11.73
2022-12-20T01:30:55.600Z,10.07
2022-12-20T01:33:22.432Z,11.03
2022-12-20T01:36:00.180Z,9.20
2022-12-20T01:38:27.316Z,8.60
2022-12-20T01:40:54.914Z,9.57
2022-12-20T01:43:22.381Z,9.17
2022-12-20T01:45:49.332Z,8.00
2022-12-20T01:48:19.947Z,9.17
2022-12-20T01:50:46.810Z,10.13
2022-12-20T01:53:13.633Z,7.90
2022-12-20T01:55:40.409Z,8.90
2022-12-20T01:58:09.420Z,8.80
2022-12-20T02:00:37.327Z,8.23
2022-12-20T02:03:08.812Z,10.70
2022-12-20T02:05:37.519Z,6.43
2022-12-20T02:08:04.972Z,10.10
2022-12-20T02:10:54.605Z,8.80
2022-12-20T02:13:43.695Z,10.83
2022-12-20T02:16:15.337Z,9.90
2022-12-20T02:18:47.247Z,11.73
2022-12-20T02:21:28.770Z,11.20
2022-12-20T02:24:32.574Z,9.30
2022-12-20T02:27:17.963Z,9.50
2022-12-20T02:30:26.955Z,8.60
2022-12-20T02:33:05.444Z,8.13
2022-12-20T02:35:36.126Z,9.83
2022-12-20T02:38:28.335Z,8.90
2022-12-20T02:41:02.413Z,8.70
2022-12-20T02:43:48.925Z,9.60
2022-12-20T02:46:16.919Z,9.90
2022-12-20T02:48:45.605Z,11.27
2022-12-20T02:51:12.774Z,10.73
2022-12-20T02:53:42.680Z,10.07
2022-12-20T02:56:22.225Z,8.90
2022-12-20T02:58:55.690Z,9.10
2022-12-20T03:01:36.451Z,11.80
2022-12-20T03:04:04.041Z,7.37
2022-12-20T03:06:30.835Z,8.80
2022-12-20T03:08:57.878Z,8.93
2022-12-20T03:11:27.465Z,10.00
2022-12-20T03:13:54.040Z,7.30
2022-12-20T03:16:20.801Z,8.23
2022-12-20T03:18:48.117Z,7.87
2022-12-20T03:21:14.898Z,8.70
2022-12-20T03:23:43.050Z,7.27
2022-12-20T03:26:11.215Z,10.70
2022-12-20T03:28:42.871Z,7.63
2022-12-20T03:31:12.749Z,8.37
2022-12-20T03:33:45.819Z,7.77
2022-12-20T03:36:12.571Z,8.63
2022-12-20T03:38:39.359Z,10.83
2022-12-20T03:41:07.666Z,8.73
2022-12-20T03:43:34.628Z,10.47
2022-12-20T03:46:01.318Z,9.47
2022-12-20T03:48:32.483Z,9.40
2022-12-20T03:50:59.309Z,7.73
2022-12-20T03:53:25.956Z,11.57
2022-12-20T03:55:52.803Z,9.27
2022-12-20T03:58:19.434Z,8.20
2022-12-20T04:00:46.123Z,9.60
2022-12-20T04:03:32.733Z,15.37
2022-12-20T04:05:59.383Z,8.70
2022-12-20T04:08:27.059Z,15.07
2022-12-20T04:11:12.244Z,8.27
2022-12-20T04:13:42.420Z,12.90
2022-12-20T04:16:10.343Z,10.17
2022-12-20T04:18:37.359Z,8.53
2022-12-20T04:21:07.127Z,8.97
2022-12-20T04:23:38.369Z,9.40
2022-12-20T04:26:06.510Z,9.33
2022-12-20T04:28:34.147Z,12.83
2022-12-20T04:31:01.279Z,9.07
2022-12-20T04:33:30.325Z,13.27
2022-12-20T04:35:57.268Z,10.77
2022-12-20T04:38:25.284Z,10.40
2022-12-20T04:40:54.850Z,11.93
2022-12-20T04:43:24.552Z,11.97
2022-12-20T04:45:56.284Z,14.23
2022-12-20T04:51:13.816Z,8.97
2022-12-20T04:53:49.944Z,11.13
2022-12-20T04:56:35.063Z,13.43
2022-12-20T04:59:08.630Z,10.83
2022-12-20T05:01:36.185Z,13.30
2022-12-20T05:04:03.530Z,14.13
2022-12-20T05:06:34.181Z,15.87
2022-12-20T05:09:01.075Z,14.40
2022-12-20T05:11:27.990Z,12.80
2022-12-20T05:13:54.770Z,13.97
2022-12-20T05:16:21.810Z,15.90
2022-12-20T05:18:49.809Z,14.10
2022-12-20T05:21:36.908Z,13.27
2022-12-20T05:24:23.448Z,12.70
2022-12-20T05:27:17.438Z,11.17
2022-12-20T05:29:44.121Z,12.40
2022-12-20T05:32:10.829Z,13.23
2022-12-20T05:34:40.721Z,12.73
2022-12-20T05:37:07.357Z,15.00
2022-12-20T05:39:36.613Z,12.87
2022-12-20T05:42:09.154Z,10.17
2022-12-20T05:44:36.807Z,15.77
2022-12-20T05:47:03.545Z,14.53
2022-12-20T05:49:33.463Z,11.80
2022-12-20T05:52:02.689Z,12.43
2022-12-20T05:54:29.760Z,17.17
2022-12-20T05:57:04.803Z,14.97
2022-12-20T05:59:37.308Z,14.87
2022-12-20T06:02:06.363Z,13.37
2022-12-20T06:04:34.182Z,15.77
2022-12-20T06:07:05.576Z,14.27
2022-12-20T06:09:32.872Z,14.07
2022-12-20T06:12:06.947Z,16.57
2022-12-20T06:14:34.426Z,15.77
2022-12-20T06:17:02.248Z,14.67
2022-12-20T06:19:30.270Z,13.13
2022-12-20T06:22:00.766Z,12.00
2022-12-20T06:24:36.515Z,14.23
2022-12-20T06:27:03.616Z,16.93
2022-12-20T06:29:31.127Z,17.80
2022-12-20T06:32:06.995Z,15.83
2022-12-20T06:34:33.823Z,13.40
2022-12-20T06:37:01.156Z,17.73
2022-12-20T06:39:31.050Z,17.67
2022-12-20T06:42:05.074Z,12.50
2022-12-20T06:44:33.025Z,14.67
2022-12-20T06:46:59.638Z,15.03
2022-12-20T06:49:26.611Z,12.43
2022-12-20T06:51:53.453Z,14.33
2022-12-20T06:54:25.670Z,13.43
2022-12-20T06:56:52.352Z,12.87
2022-12-20T06:59:19.583Z,12.70
2022-12-20T07:01:46.503Z,13.33
2022-12-20T07:04:13.307Z,13.23
2022-12-20T07:06:39.847Z,13.80
2022-12-20T07:09:06.485Z,14.93
2022-12-20T07:11:33.159Z,15.10
2022-12-20T07:13:59.889Z,11.70
2022-12-20T07:16:26.793Z,13.20
2022-12-20T07:18:53.643Z,13.53
2022-12-20T07:21:20.784Z,10.90
2022-12-20T07:23:47.822Z,11.77
2022-12-20T07:26:15.333Z,11.60
2022-12-20T07:28:42.765Z,13.00
2022-12-20T07:31:09.376Z,11.93
2022-12-20T07:33:37.328Z,12.07
2022-12-20T07:36:08.883Z,12.40
2022-12-20T07:38:35.750Z,13.50
2022-12-20T07:41:30.078Z,13.00
2022-12-20T07:43:58.890Z,16.13
2022-12-20T07:46:25.600Z,16.00
2022-12-20T07:48:52.507Z,14.07
2022-12-20T07:51:25.821Z,16.80
2022-12-20T07:54:05.267Z,16.03
2022-12-20T07:56:40.522Z,13.70
2022-12-20T07:59:08.387Z,15.60
2022-12-20T08:01:35.531Z,13.10
2022-12-20T08:04:13.548Z,16.17
2022-12-20T08:06:41.156Z,17.80
2022-12-20T08:09:09.266Z,17.53
2022-12-20T08:11:37.174Z,16.23
2022-12-20T08:14:05.176Z,17.40
2022-12-20T08:16:31.865Z,15.97
2022-12-20T08:18:58.482Z,17.90
2022-12-20T08:21:25.127Z,13.73
2022-12-20T08:23:51.981Z,20.00
2022-12-20T08:26:18.692Z,18.27
2022-12-20T08:28:45.292Z,14.23
2022-12-20T08:31:12.871Z,14.63
2022-12-20T08:33:40.328Z,14.53
2022-12-20T08:36:09.812Z,15.97
2022-12-20T08:38:37.155Z,13.23
2022-12-20T08:41:05.737Z,18.00
2022-12-20T08:43:33.744Z,12.60
2022-12-20T08:46:00.996Z,14.00
2022-12-20T08:48:27.977Z,15.20
2022-12-20T08:51:01.113Z,14.00
2022-12-20T08:53:29.462Z,12.50
2022-12-20T08:56:17.759Z,15.43
2022-12-20T08:58:45.109Z,12.27
2022-12-20T09:01:13.961Z,17.47
2022-12-20T09:03:41.145Z,12.77
2022-12-20T09:06:13.615Z,16.70
2022-12-20T09:08:41.075Z,11.83
2022-12-20T09:11:10.068Z,14.70
2022-12-20T09:13:43.460Z,13.93
2022-12-20T09:16:12.884Z,15.50
2022-12-20T09:18:39.746Z,11.10
2022-12-20T09:21:07.672Z,15.70
2022-12-20T09:23:35.690Z,14.10
2022-12-20T09:26:07.956Z,12.97
2022-12-20T09:28:34.847Z,11.73
2022-12-20T09:31:06.419Z,14.50
2022-12-20T09:33:34.290Z,13.47
2022-12-20T09:36:01.644Z,10.87
2022-12-20T09:38:29.610Z,12.00
2022-12-20T09:41:00.560Z,11.87
2022-12-20T09:43:27.812Z,12.97
2022-12-20T09:45:59.791Z,11.27
2022-12-20T09:48:30.700Z,18.17
2022-12-20T09:51:09.528Z,13.73
2022-12-20T09:53:56.895Z,11.40
2022-12-20T09:56:45.291Z,11.43
2022-12-20T09:59:14.980Z,13.43
2022-12-20T10:01:47.381Z,9.13
2022-12-20T10:04:24.848Z,11.80
2022-12-20T10:07:14.600Z,9.20
2022-12-20T10:09:59.493Z,9.87
2022-12-20T10:12:36.604Z,10.20
2022-12-20T10:15:34.076Z,10.23
2022-12-20T10:18:06.692Z,8.40
2022-12-20T10:20:54.912Z,8.67
2022-12-20T10:23:35.765Z,7.20
2022-12-20T10:26:05.111Z,9.17
2022-12-20T10:28:34.798Z,10.57
2022-12-20T10:31:16.238Z,6.10
2022-12-20T10:33:43.709Z,6.33
2022-12-20T10:36:27.326Z,9.53
2022-12-20T10:38:58.867Z,7.00
2022-12-20T10:41:28.136Z,8.17
2022-12-20T10:43:56.401Z,6.83
2022-12-20T10:46:24.220Z,9.10
2022-12-20T10:48:51.670Z,7.63
2022-12-20T10:51:21.208Z,7.23
2022-12-20T10:54:03.206Z,7.47
2022-12-20T10:56:32.087Z,7.87
2022-12-20T10:59:00.045Z,9.57
2022-12-20T11:01:32.670Z,7.17
2022-12-20T11:04:05.670Z,7.43
2022-12-20T11:06:38.700Z,6.93
2022-12-20T11:09:33.417Z,10.03
2022-12-20T11:12:14.406Z,8.47
2022-12-20T11:14:45.459Z,7.37
2022-12-20T11:17:22.323Z,5.73
2022-12-20T11:19:54.664Z,7.47
2022-12-20T11:22:49.243Z,8.37
2022-12-20T11:25:43.792Z,8.43
2022-12-20T11:28:27.496Z,7.87
2022-12-20T11:31:07.244Z,8.37
2022-12-20T11:33:46.181Z,7.30
2022-12-20T11:36:23.028Z,5.60
2022-12-20T11:38:55.849Z,5.50
2022-12-20T11:41:45.576Z,9.20
2022-12-20T11:44:29.044Z,8.40
2022-12-20T11:47:10.872Z,7.90
2022-12-20T11:49:52.868Z,6.43
2022-12-20T11:52:25.657Z,8.77
2022-12-20T11:55:13.914Z,6.17
2022-12-20T11:58:17.026Z,6.77
2022-12-20T12:00:36.000Z,9.43
2022-12-20T12:03:14.950Z,6.33
2022-12-20T12:05:47.692Z,9.50
2022-12-20T12:08:29.398Z,8.10
2022-12-20T12:11:25.447Z,9.40
2022-12-20T12:13:55.723Z,9.33
2022-12-20T12:16:35.167Z,9.23
2022-12-20T12:19:02.243Z,9.07
2022-12-20T12:21:35.119Z,7.50
2022-12-20T12:24:12.211Z,9.23
2022-12-20T12:26:40.957Z,9.20
2022-12-20T12:29:13.445Z,9.53
2022-12-20T12:31:46.115Z,7.70
2022-12-20T12:34:50.403Z,7.73
2022-12-20T12:37:19.633Z,12.27
2022-12-20T12:40:16.224Z,9.67
2022-12-20T12:43:08.186Z,10.20
2022-12-20T12:45:38.603Z,7.07
2022-12-20T12:48:17.712Z,8.97
2022-12-20T12:50:50.329Z,8.33
2022-12-20T12:53:29.897Z,8.87
2022-12-20T12:56:12.934Z,7.00
2022-12-20T12:58:48.729Z,12.73
2022-12-20T13:01:54.426Z,8.20
2022-12-20T13:04:23.970Z,12.57
2022-12-20T13:06:50.565Z,7.43
2022-12-20T13:09:26.206Z,10.17
2022-12-20T13:12:00.371Z,7.60
2022-12-20T13:14:28.837Z,7.73
2022-12-20T13:17:24.041Z,11.30
2022-12-20T13:19:54.110Z,9.03
2022-12-20T13:22:23.201Z,8.87
2022-12-20T13:24:56.245Z,8.43
2022-12-20T13:27:40.506Z,11.57
2022-12-20T13:30:07.072Z,12.00
2022-12-20T13:32:48.718Z,7.73
2022-12-20T13:35:24.915Z,12.57
2022-12-20T13:37:54.875Z,9.20
2022-12-20T13:40:55.650Z,8.90
2022-12-20T13:43:23.270Z,13.07
2022-12-20T13:45:52.415Z,9.97
2022-12-20T13:48:24.119Z,10.90
2022-12-20T13:50:55.240Z,10.03
2022-12-20T13:53:24.799Z,12.00
2022-12-20T13:55:51.386Z,11.13
2022-12-20T13:58:20.451Z,10.30
2022-12-20T14:00:48.732Z,11.27
2022-12-20T14:03:26.918Z,12.97
2022-12-20T14:05:59.302Z,10.83
2022-12-20T14:08:29.239Z,10.00
2022-12-20T14:10:55.879Z,15.87
2022-12-20T14:13:24.665Z,10.37
2022-12-20T14:15:52.147Z,12.23
2022-12-20T14:18:21.853Z,9.67
2022-12-20T14:20:59.666Z,7.97
2022-12-20T14:23:33.923Z,10.30
2022-12-20T14:26:02.125Z,10.47
2022-12-20T14:28:39.343Z,12.03
2022-12-20T14:31:07.791Z,9.70
2022-12-20T14:33:35.852Z,15.43
2022-12-20T14:36:09.503Z,11.67
2022-12-20T14:38:36.329Z,12.10
2022-12-20T14:41:02.986Z,10.30
2022-12-20T14:43:34.082Z,9.53
2022-12-20T14:46:20.941Z,8.83
2022-12-20T14:48:47.601Z,12.10
2022-12-20T14:51:20.869Z,8.77
2022-12-20T14:53:49.031Z,7.30
2022-12-20T14:56:18.706Z,10.37
2022-12-20T14:58:45.531Z,11.30
2022-12-20T15:01:15.136Z,9.07
2022-12-20T15:03:52.850Z,7.83
2022-12-20T15:06:35.610Z,7.60
2022-12-20T15:09:02.758Z,9.00
2022-12-20T15:11:29.766Z,12.83
2022-12-20T15:13:57.016Z,8.63
2022-12-20T15:16:26.115Z,7.70
2022-12-20T15:18:55.600Z,7.23
2022-12-20T15:21:42.733Z,8.50
2022-12-20T15:24:15.168Z,8.53
2022-12-20T15:26:41.883Z,8.10
2022-12-20T15:29:28.059Z,8.10
2022-12-20T15:32:06.532Z,11.27
2022-12-20T15:34:38.324Z,13.97
2022-12-20T15:37:06.307Z,14.90
2022-12-20T15:39:33.661Z,9.40
2022-12-20T15:42:01.854Z,10.43
2022-12-20T15:44:30.609Z,9.10
2022-12-20T15:46:57.433Z,8.20
2022-12-20T15:49:33.275Z,7.50
2022-12-20T15:51:59.909Z,12.63
2022-12-20T15:54:35.754Z,9.10
2022-12-20T15:57:07.444Z,6.50
2022-12-20T16:02:22.929Z,7.20
2022-12-20T16:04:50.531Z,10.70
2022-12-20T16:07:17.449Z,6.67
2022-12-20T16:09:44.165Z,8.03
2022-12-20T16:12:15.996Z,6.23
2022-12-20T16:14:42.738Z,5.37
2022-12-20T16:17:16.024Z,7.13
2022-12-20T16:19:43.454Z,5.80
2022-12-20T16:22:22.165Z,9.13
2022-12-20T16:24:49.244Z,11.77
2022-12-20T16:27:15.903Z,6.03
2022-12-20T16:29:42.550Z,7.90
2022-12-20T16:32:19.754Z,8.30
2022-12-20T16:34:46.953Z,8.60
2022-12-20T16:37:13.798Z,8.50
2022-12-20T16:39:41.109Z,42.40
2022-12-20T16:42:15.437Z,8.97
2022-12-20T16:44:45.328Z,19.83
2022-12-20T16:47:13.470Z,8.03
2022-12-20T16:49:47.322Z,9.07
2022-12-20T16:52:19.067Z,8.63
2022-12-20T16:54:45.734Z,7.93
2022-12-20T16:57:12.364Z,9.13
2022-12-20T16:59:39.018Z,10.10
2022-12-20T17:02:19.930Z,11.27
2022-12-20T17:04:46.905Z,9.57
2022-12-20T17:07:13.556Z,9.40
2022-12-20T17:09:40.187Z,9.57
2022-12-20T17:12:15.411Z,18.13
2022-12-20T17:14:43.046Z,8.23
2022-12-20T17:17:09.801Z,9.80
2022-12-20T17:19:37.520Z,11.13
2022-12-20T17:24:48.355Z,17.83
2022-12-20T17:27:15.202Z,10.87
2022-12-20T17:29:42.048Z,12.20
2022-12-20T17:32:20.938Z,10.60
2022-12-20T17:34:47.638Z,10.93
2022-12-20T17:37:14.348Z,11.77
2022-12-20T17:39:40.982Z,13.67
2022-12-20T17:42:12.124Z,8.97
2022-12-20T17:44:38.782Z,10.87
2022-12-20T17:47:06.402Z,12.50
2022-12-20T17:49:33.320Z,10.37
2022-12-20T17:52:00.178Z,14.80
2022-12-20T17:54:32.100Z,11.63
2022-12-20T17:57:03.642Z,12.33
2022-12-20T17:59:30.676Z,14.60
2022-12-20T18:01:57.554Z,11.13
2022-12-20T18:04:24.485Z,11.87
2022-12-20T18:06:52.335Z,13.77
2022-12-20T18:09:22.258Z,10.33
2022-12-20T18:11:49.480Z,14.03
2022-12-20T18:14:16.241Z,12.27
2022-12-20T18:16:43.100Z,10.43
2022-12-20T18:19:16.567Z,12.93
2022-12-20T18:21:43.630Z,11.50
2022-12-20T18:24:15.270Z,10.93
2022-12-20T18:26:42.514Z,13.63
2022-12-20T18:29:09.929Z,13.10
2022-12-20T18:31:36.715Z,12.73
2022-12-20T18:34:03.744Z,15.60
2022-12-20T18:36:34.317Z,10.43
2022-12-20T18:39:02.089Z,13.77
2022-12-20T18:41:30.164Z,13.43
2022-12-20T18:44:02.509Z,14.93
2022-12-20T18:46:30.062Z,15.50
2022-12-20T18:48:58.296Z,9.50
2022-12-20T18:51:27.911Z,18.33
2022-12-20T18:53:56.442Z,12.40
2022-12-20T18:56:25.345Z,12.33
2022-12-20T18:58:52.640Z,13.40
2022-12-20T19:01:21.781Z,13.30
2022-12-20T19:03:50.691Z,16.13
2022-12-20T19:06:18.048Z,17.73
2022-12-20T19:08:44.907Z,17.53
2022-12-20T19:11:14.133Z,15.57
2022-12-20T19:13:41.776Z,15.77
2022-12-20T19:16:12.009Z,19.67
2022-12-20T19:18:39.696Z,17.97
2022-12-20T19:21:13.712Z,19.30
2022-12-20T19:23:41.667Z,20.37
2022-12-20T19:26:10.084Z,17.90
2022-12-20T19:28:36.772Z,25.10
2022-12-20T19:31:17.382Z,24.67
2022-12-20T19:33:47.902Z,20.10
2022-12-20T19:36:20.412Z,22.77
2022-12-20T19:38:50.270Z,27.80
2022-12-20T19:41:17.973Z,24.47
2022-12-20T19:43:45.056Z,27.30
2022-12-20T19:46:11.677Z,20.57
2022-12-20T19:48:38.729Z,19.10
2022-12-20T19:51:11.680Z,17.27
2022-12-20T19:53:39.769Z,17.70
2022-12-20T19:56:10.240Z,17.23
2022-12-20T19:58:37.782Z,20.20
2022-12-20T20:01:05.654Z,19.27
2022-12-20T20:03:32.807Z,16.43
2022-12-20T20:05:59.625Z,18.17
2022-12-20T20:08:26.286Z,18.60
2022-12-20T20:10:57.627Z,18.33
2022-12-20T20:13:26.512Z,21.67
2022-12-20T20:16:01.378Z,14.90
2022-12-20T20:18:28.689Z,17.60
2022-12-20T20:20:55.911Z,21.07
2022-12-20T20:23:23.179Z,16.37
2022-12-20T20:25:56.895Z,18.10
2022-12-20T20:28:31.315Z,24.27
2022-12-20T20:30:59.399Z,21.73
2022-12-20T20:33:26.192Z,20.77
2022-12-20T20:35:57.179Z,15.03
2022-12-20T20:40:50.911Z,17.50
2022-12-20T20:43:17.871Z,22.70
2022-12-20T20:45:44.511Z,18.30
2022-12-20T20:48:11.384Z,14.97
2022-12-20T20:50:38.009Z,16.43
2022-12-20T20:53:04.909Z,18.77
2022-12-20T20:55:31.548Z,15.70
2022-12-20T20:57:58.370Z,21.10
2022-12-20T21:00:25.278Z,14.97
2022-12-20T21:02:51.993Z,19.00
2022-12-20T21:08:05.796Z,15.17
2022-12-20T21:10:32.619Z,23.30
2022-12-20T21:12:59.400Z,19.60
2022-12-20T21:15:28.021Z,15.30
2022-12-20T21:17:55.185Z,18.13
2022-12-20T21:20:25.957Z,15.93
2022-12-20T21:22:53.547Z,16.70
2022-12-20T21:25:20.245Z,20.17
2022-12-20T21:27:46.946Z,15.13
2022-12-20T21:30:13.575Z,15.53
2022-12-20T21:32:40.331Z,19.97
2022-12-20T21:35:07.332Z,16.13
2022-12-20T21:37:33.935Z,22.80
2022-12-20T21:40:00.610Z,17.00
2022-12-20T21:42:27.348Z,21.42
2022-12-20T21:44:54.013Z,18.60
2022-12-20T21:47:20.648Z,16.87
2022-12-20T21:49:47.316Z,16.90
2022-12-20T21:52:14.158Z,23.80
2022-12-20T21:54:40.821Z,24.63
2022-12-20T21:57:07.450Z,19.70
2022-12-20T21:59:34.135Z,19.43
2022-12-20T22:02:01.129Z,19.07
2022-12-20T22:04:28.040Z,17.40
2022-12-20T22:06:54.681Z,23.63
2022-12-20T22:09:21.407Z,17.10
2022-12-20T22:11:48.644Z,21.53
2022-12-20T22:14:16.057Z,20.27
2022-12-20T22:16:43.536Z,17.57
2022-12-20T22:19:12.889Z,17.23
2022-12-20T22:21:39.545Z,19.40
2022-12-20T22:24:06.481Z,18.93
2022-12-20T22:26:33.608Z,18.03
2022-12-20T22:29:02.382Z,17.53
2022-12-20T22:31:30.459Z,20.23
2022-12-20T22:33:58.030Z,19.70
2022-12-20T22:36:25.222Z,19.30
2022-12-20T22:38:53.109Z,21.03
2022-12-20T22:41:22.750Z,18.43
2022-12-20T22:43:50.050Z,19.03
2022-12-20T22:46:17.802Z,18.60
2022-12-20T22:48:44.971Z,19.10
2022-12-20T22:51:14.285Z,17.33
2022-12-20T22:53:41.504Z,22.50
2022-12-20T22:56:08.873Z,20.30
2022-12-20T22:58:36.762Z,18.40
2022-12-20T23:01:05.558Z,17.30
2022-12-20T23:03:32.496Z,15.57
2022-12-20T23:06:00.949Z,20.97
2022-12-20T23:08:30.079Z,19.23
2022-12-20T23:11:15.839Z,17.60
2022-12-20T23:14:15.265Z,17.80
2022-12-20T23:16:45.008Z,16.90
2022-12-20T23:19:11.963Z,15.30
2022-12-20T23:21:57.407Z,17.93
2022-12-20T23:24:24.105Z,17.27
2022-12-20T23:26:50.708Z,18.07
2022-12-20T23:29:17.404Z,17.90
2022-12-20T23:31:46.312Z,16.00
2022-12-20T23:34:13.501Z,16.43
2022-12-20T23:36:40.849Z,17.80
2022-12-20T23:39:07.972Z,16.10
2022-12-20T23:41:34.781Z,18.57
2022-12-20T23:44:03.800Z,21.33
2022-12-20T23:46:30.554Z,19.83
2022-12-20T23:48:57.308Z,19.00
2022-12-20T23:51:23.907Z,18.80
2022-12-20T23:53:51.715Z,19.67
2022-12-20T23:56:21.019Z,17.80
2022-12-20T23:58:53.104Z,19.40
